sensor_id;sensor_type;location;lat;lon;timestamp;P1;durP1;ratioP1;P2;durP2;ratioP2
57720;SDS011;43562;43.064;0.160;2023-04-03T00:02:13;4.85;;;2.42;;
57720;SDS011;43562;43.064;0.160;2023-04-03T00:04:39;3.05;;;2.75;;
57720;SDS011;43562;43.064;0.160;2023-04-03T00:07:05;5.57;;;2.45;;
57720;SDS011;43562;43.064;0.160;2023-04-03T00:09:32;2.78;;;2.00;;
57720;SDS011;43562;43.064;0.160;2023-04-03T00:11:58;5.97;;;2.05;;
57720;SDS011;43562;43.064;0.160;2023-04-03T00:14:24;5.43;;;2.40;;
57720;SDS011;43562;43.064;0.160;2023-04-03T00:16:50;2.20;;;2.10;;
57720;SDS011;43562;43.064;0.160;2023-04-03T00:19:16;2.20;;;1.95;;
57720;SDS011;43562;43.064;0.160;2023-04-03T00:21:42;6.00;;;2.45;;
57720;SDS011;43562;43.064;0.160;2023-04-03T00:24:08;2.50;;;2.25;;
57720;SDS011;43562;43.064;0.160;2023-04-03T00:26:34;2.42;;;2.05;;
57720;SDS011;43562;43.064;0.160;2023-04-03T00:29:01;2.30;;;2.10;;
57720;SDS011;43562;43.064;0.160;2023-04-03T00:31:27;2.90;;;2.67;;
57720;SDS011;43562;43.064;0.160;2023-04-03T00:33:53;2.80;;;2.53;;
57720;SDS011;43562;43.064;0.160;2023-04-03T00:36:19;3.90;;;2.92;;
57720;SDS011;43562;43.064;0.160;2023-04-03T00:38:45;2.60;;;2.30;;
57720;SDS011;43562;43.064;0.160;2023-04-03T00:41:11;1.75;;;1.50;;
57720;SDS011;43562;43.064;0.160;2023-04-03T00:43:37;2.30;;;1.80;;
57720;SDS011;43562;43.064;0.160;2023-04-03T00:46:03;2.50;;;2.10;;
57720;SDS011;43562;43.064;0.160;2023-04-03T00:48:33;3.88;;;2.15;;
57720;SDS011;43562;43.064;0.160;2023-04-03T00:51:00;3.78;;;1.77;;
57720;SDS011;43562;43.064;0.160;2023-04-03T00:53:29;2.50;;;2.30;;
57720;SDS011;43562;43.064;0.160;2023-04-03T00:55:56;2.10;;;1.90;;
57720;SDS011;43562;43.064;0.160;2023-04-03T00:58:25;3.13;;;1.85;;
57720;SDS011;43562;43.064;0.160;2023-04-03T01:00:54;2.13;;;2.03;;
57720;SDS011;43562;43.064;0.160;2023-04-03T01:03:22;5.57;;;2.22;;
57720;SDS011;43562;43.064;0.160;2023-04-03T01:05:49;1.95;;;1.70;;
57720;SDS011;43562;43.064;0.160;2023-04-03T01:08:15;3.72;;;2.08;;
57720;SDS011;43562;43.064;0.160;2023-04-03T01:10:41;2.97;;;2.03;;
57720;SDS011;43562;43.064;0.160;2023-04-03T01:13:18;2.15;;;2.00;;
57720;SDS011;43562;43.064;0.160;2023-04-03T01:15:45;2.50;;;2.30;;
57720;SDS011;43562;43.064;0.160;2023-04-03T01:18:11;3.67;;;2.13;;
57720;SDS011;43562;43.064;0.160;2023-04-03T01:28:03;4.28;;;2.22;;
57720;SDS011;43562;43.064;0.160;2023-04-03T01:30:34;3.92;;;2.28;;
57720;SDS011;43562;43.064;0.160;2023-04-03T01:33:02;2.85;;;1.90;;
57720;SDS011;43562;43.064;0.160;2023-04-03T01:35:28;2.20;;;2.00;;
57720;SDS011;43562;43.064;0.160;2023-04-03T01:37:54;2.17;;;2.08;;
57720;SDS011;43562;43.064;0.160;2023-04-03T01:40:20;2.70;;;2.50;;
57720;SDS011;43562;43.064;0.160;2023-04-03T01:42:46;2.28;;;2.08;;
57720;SDS011;43562;43.064;0.160;2023-04-03T01:45:12;2.78;;;2.58;;
57720;SDS011;43562;43.064;0.160;2023-04-03T01:47:38;3.20;;;2.20;;
57720;SDS011;43562;43.064;0.160;2023-04-03T01:50:04;2.63;;;2.42;;
57720;SDS011;43562;43.064;0.160;2023-04-03T01:52:31;2.05;;;1.95;;
57720;SDS011;43562;43.064;0.160;2023-04-03T01:54:57;3.00;;;2.47;;
57720;SDS011;43562;43.064;0.160;2023-04-03T01:57:23;3.13;;;1.83;;
57720;SDS011;43562;43.064;0.160;2023-04-03T01:59:49;1.98;;;1.88;;
57720;SDS011;43562;43.064;0.160;2023-04-03T02:02:16;5.80;;;2.60;;
57720;SDS011;43562;43.064;0.160;2023-04-03T02:04:42;2.47;;;2.28;;
57720;SDS011;43562;43.064;0.160;2023-04-03T02:07:08;2.45;;;2.20;;
57720;SDS011;43562;43.064;0.160;2023-04-03T02:09:34;2.75;;;2.53;;
57720;SDS011;43562;43.064;0.160;2023-04-03T02:12:01;4.32;;;2.47;;
57720;SDS011;43562;43.064;0.160;2023-04-03T02:14:27;1.90;;;1.80;;
57720;SDS011;43562;43.064;0.160;2023-04-03T02:16:53;4.72;;;2.08;;
57720;SDS011;43562;43.064;0.160;2023-04-03T02:19:19;5.55;;;2.45;;
57720;SDS011;43562;43.064;0.160;2023-04-03T02:21:45;3.15;;;2.53;;
57720;SDS011;43562;43.064;0.160;2023-04-03T02:24:11;4.38;;;2.70;;
57720;SDS011;43562;43.064;0.160;2023-04-03T02:26:37;2.92;;;2.38;;
57720;SDS011;43562;43.064;0.160;2023-04-03T02:29:03;2.20;;;2.00;;
57720;SDS011;43562;43.064;0.160;2023-04-03T02:31:29;1.60;;;1.50;;
57720;SDS011;43562;43.064;0.160;2023-04-03T02:33:56;3.55;;;2.15;;
57720;SDS011;43562;43.064;0.160;2023-04-03T02:36:22;3.20;;;1.90;;
57720;SDS011;43562;43.064;0.160;2023-04-03T02:38:48;2.20;;;2.00;;
57720;SDS011;43562;43.064;0.160;2023-04-03T02:41:14;2.58;;;2.17;;
57720;SDS011;43562;43.064;0.160;2023-04-03T02:43:40;2.40;;;2.20;;
57720;SDS011;43562;43.064;0.160;2023-04-03T02:46:07;3.28;;;2.30;;
57720;SDS011;43562;43.064;0.160;2023-04-03T02:48:33;2.10;;;2.00;;
57720;SDS011;43562;43.064;0.160;2023-04-03T02:51:03;2.13;;;1.85;;
57720;SDS011;43562;43.064;0.160;2023-04-03T02:53:29;3.42;;;2.55;;
57720;SDS011;43562;43.064;0.160;2023-04-03T02:55:55;2.15;;;1.95;;
57720;SDS011;43562;43.064;0.160;2023-04-03T02:58:21;2.47;;;2.28;;
57720;SDS011;43562;43.064;0.160;2023-04-03T03:00:47;2.17;;;2.03;;
57720;SDS011;43562;43.064;0.160;2023-04-03T03:03:13;2.42;;;2.05;;
57720;SDS011;43562;43.064;0.160;2023-04-03T03:05:40;2.22;;;2.10;;
57720;SDS011;43562;43.064;0.160;2023-04-03T03:08:06;2.58;;;1.83;;
57720;SDS011;43562;43.064;0.160;2023-04-03T03:10:32;2.53;;;2.33;;
57720;SDS011;43562;43.064;0.160;2023-04-03T03:12:58;2.45;;;2.25;;
57720;SDS011;43562;43.064;0.160;2023-04-03T03:15:24;4.95;;;2.38;;
57720;SDS011;43562;43.064;0.160;2023-04-03T03:17:50;2.60;;;2.40;;
57720;SDS011;43562;43.064;0.160;2023-04-03T03:20:16;2.65;;;2.30;;
57720;SDS011;43562;43.064;0.160;2023-04-03T03:22:42;2.47;;;2.10;;
57720;SDS011;43562;43.064;0.160;2023-04-03T03:25:08;3.03;;;1.90;;
57720;SDS011;43562;43.064;0.160;2023-04-03T03:27:35;2.20;;;2.10;;
57720;SDS011;43562;43.064;0.160;2023-04-03T03:30:01;5.47;;;2.13;;
57720;SDS011;43562;43.064;0.160;2023-04-03T03:32:27;3.47;;;2.33;;
57720;SDS011;43562;43.064;0.160;2023-04-03T03:34:53;3.90;;;2.13;;
57720;SDS011;43562;43.064;0.160;2023-04-03T03:37:19;2.40;;;2.20;;
57720;SDS011;43562;43.064;0.160;2023-04-03T03:39:45;4.95;;;2.20;;
57720;SDS011;43562;43.064;0.160;2023-04-03T03:42:11;2.90;;;2.40;;
57720;SDS011;43562;43.064;0.160;2023-04-03T03:44:37;2.20;;;2.00;;
57720;SDS011;43562;43.064;0.160;2023-04-03T03:47:03;2.45;;;2.17;;
57720;SDS011;43562;43.064;0.160;2023-04-03T03:49:31;3.42;;;2.65;;
57720;SDS011;43562;43.064;0.160;2023-04-03T03:51:57;3.15;;;2.38;;
57720;SDS011;43562;43.064;0.160;2023-04-03T03:54:23;3.75;;;2.35;;
57720;SDS011;43562;43.064;0.160;2023-04-03T03:56:49;4.13;;;2.30;;
57720;SDS011;43562;43.064;0.160;2023-04-03T03:59:15;2.55;;;2.35;;
57720;SDS011;43562;43.064;0.160;2023-04-03T04:01:41;2.90;;;2.63;;
57720;SDS011;43562;43.064;0.160;2023-04-03T04:04:07;3.90;;;2.72;;
57720;SDS011;43562;43.064;0.160;2023-04-03T04:06:33;2.50;;;2.30;;
57720;SDS011;43562;43.064;0.160;2023-04-03T04:09:00;2.78;;;2.47;;
57720;SDS011;43562;43.064;0.160;2023-04-03T04:11:26;3.60;;;3.30;;
57720;SDS011;43562;43.064;0.160;2023-04-03T04:13:52;4.32;;;3.00;;
57720;SDS011;43562;43.064;0.160;2023-04-03T04:16:18;3.13;;;2.83;;
57720;SDS011;43562;43.064;0.160;2023-04-03T04:18:44;3.38;;;2.80;;
57720;SDS011;43562;43.064;0.160;2023-04-03T04:21:10;5.85;;;3.00;;
57720;SDS011;43562;43.064;0.160;2023-04-03T04:23:37;3.05;;;2.80;;
57720;SDS011;43562;43.064;0.160;2023-04-03T04:26:03;4.60;;;4.18;;
57720;SDS011;43562;43.064;0.160;2023-04-03T04:28:29;5.95;;;3.45;;
57720;SDS011;43562;43.064;0.160;2023-04-03T04:30:55;5.07;;;4.30;;
57720;SDS011;43562;43.064;0.160;2023-04-03T04:33:21;9.05;;;4.25;;
57720;SDS011;43562;43.064;0.160;2023-04-03T04:35:47;4.57;;;3.50;;
57720;SDS011;43562;43.064;0.160;2023-04-03T04:38:13;4.35;;;3.58;;
57720;SDS011;43562;43.064;0.160;2023-04-03T04:40:39;5.68;;;4.15;;
57720;SDS011;43562;43.064;0.160;2023-04-03T04:43:06;4.32;;;4.03;;
57720;SDS011;43562;43.064;0.160;2023-04-03T04:45:32;4.10;;;3.72;;
57720;SDS011;43562;43.064;0.160;2023-04-03T04:47:58;4.47;;;3.97;;
57720;SDS011;43562;43.064;0.160;2023-04-03T04:50:24;4.80;;;4.40;;
57720;SDS011;43562;43.064;0.160;2023-04-03T04:52:50;4.35;;;3.92;;
57720;SDS011;43562;43.064;0.160;2023-04-03T04:55:17;3.53;;;3.22;;
57720;SDS011;43562;43.064;0.160;2023-04-03T04:57:43;4.07;;;3.70;;
57720;SDS011;43562;43.064;0.160;2023-04-03T05:00:09;7.75;;;4.18;;
57720;SDS011;43562;43.064;0.160;2023-04-03T05:02:35;5.93;;;3.97;;
57720;SDS011;43562;43.064;0.160;2023-04-03T05:05:02;7.22;;;3.05;;
57720;SDS011;43562;43.064;0.160;2023-04-03T05:07:28;4.03;;;3.63;;
57720;SDS011;43562;43.064;0.160;2023-04-03T05:09:55;3.53;;;3.22;;
57720;SDS011;43562;43.064;0.160;2023-04-03T05:12:21;4.10;;;3.72;;
57720;SDS011;43562;43.064;0.160;2023-04-03T05:14:47;4.45;;;3.22;;
57720;SDS011;43562;43.064;0.160;2023-04-03T05:17:13;3.90;;;3.10;;
57720;SDS011;43562;43.064;0.160;2023-04-03T05:19:39;3.42;;;3.13;;
57720;SDS011;43562;43.064;0.160;2023-04-03T05:22:05;3.35;;;3.15;;
57720;SDS011;43562;43.064;0.160;2023-04-03T05:24:31;4.95;;;4.47;;
57720;SDS011;43562;43.064;0.160;2023-04-03T05:26:58;4.85;;;4.47;;
57720;SDS011;43562;43.064;0.160;2023-04-03T05:29:24;4.15;;;3.80;;
57720;SDS011;43562;43.064;0.160;2023-04-03T05:31:50;4.75;;;4.00;;
57720;SDS011;43562;43.064;0.160;2023-04-03T05:34:16;4.32;;;4.03;;
57720;SDS011;43562;43.064;0.160;2023-04-03T05:36:42;4.93;;;4.53;;
57720;SDS011;43562;43.064;0.160;2023-04-03T05:39:08;4.32;;;3.92;;
57720;SDS011;43562;43.064;0.160;2023-04-03T05:41:34;4.75;;;4.35;;
57720;SDS011;43562;43.064;0.160;2023-04-03T05:44:00;4.40;;;4.00;;
57720;SDS011;43562;43.064;0.160;2023-04-03T05:46:26;3.80;;;3.50;;
57720;SDS011;43562;43.064;0.160;2023-04-03T05:48:52;3.78;;;2.83;;
57720;SDS011;43562;43.064;0.160;2023-04-03T05:51:20;3.00;;;2.70;;
57720;SDS011;43562;43.064;0.160;2023-04-03T05:53:47;5.97;;;3.25;;
57720;SDS011;43562;43.064;0.160;2023-04-03T05:56:13;4.25;;;2.88;;
57720;SDS011;43562;43.064;0.160;2023-04-03T05:58:39;2.78;;;2.58;;
57720;SDS011;43562;43.064;0.160;2023-04-03T06:01:06;3.28;;;2.70;;
57720;SDS011;43562;43.064;0.160;2023-04-03T06:03:32;4.53;;;2.80;;
57720;SDS011;43562;43.064;0.160;2023-04-03T06:05:58;2.72;;;2.53;;
57720;SDS011;43562;43.064;0.160;2023-04-03T06:08:25;3.20;;;2.55;;
57720;SDS011;43562;43.064;0.160;2023-04-03T06:10:51;2.97;;;2.78;;
57720;SDS011;43562;43.064;0.160;2023-04-03T06:13:17;4.95;;;4.45;;
57720;SDS011;43562;43.064;0.160;2023-04-03T06:15:43;3.28;;;3.00;;
57720;SDS011;43562;43.064;0.160;2023-04-03T06:18:09;3.63;;;3.03;;
57720;SDS011;43562;43.064;0.160;2023-04-03T06:20:35;5.97;;;3.20;;
57720;SDS011;43562;43.064;0.160;2023-04-03T06:23:01;2.63;;;2.42;;
57720;SDS011;43562;43.064;0.160;2023-04-03T06:25:27;6.32;;;2.72;;
57720;SDS011;43562;43.064;0.160;2023-04-03T06:27:54;2.78;;;2.53;;
57720;SDS011;43562;43.064;0.160;2023-04-03T06:30:23;4.05;;;2.92;;
57720;SDS011;43562;43.064;0.160;2023-04-03T06:32:49;3.70;;;2.50;;
57720;SDS011;43562;43.064;0.160;2023-04-03T06:35:15;4.35;;;3.05;;
57720;SDS011;43562;43.064;0.160;2023-04-03T06:37:41;5.88;;;2.58;;
57720;SDS011;43562;43.064;0.160;2023-04-03T06:40:09;3.22;;;2.92;;
57720;SDS011;43562;43.064;0.160;2023-04-03T06:42:39;2.78;;;2.55;;
57720;SDS011;43562;43.064;0.160;2023-04-03T06:45:06;3.20;;;2.72;;
57720;SDS011;43562;43.064;0.160;2023-04-03T06:47:32;4.40;;;3.05;;
57720;SDS011;43562;43.064;0.160;2023-04-03T06:49:58;2.88;;;2.60;;
57720;SDS011;43562;43.064;0.160;2023-04-03T06:52:25;3.05;;;2.75;;
57720;SDS011;43562;43.064;0.160;2023-04-03T06:54:51;4.75;;;3.17;;
57720;SDS011;43562;43.064;0.160;2023-04-03T06:57:22;6.70;;;4.32;;
57720;SDS011;43562;43.064;0.160;2023-04-03T06:59:49;4.28;;;2.55;;
57720;SDS011;43562;43.064;0.160;2023-04-03T07:02:15;2.30;;;2.10;;
57720;SDS011;43562;43.064;0.160;2023-04-03T07:04:41;3.75;;;3.47;;
57720;SDS011;43562;43.064;0.160;2023-04-03T07:07:07;3.10;;;2.90;;
57720;SDS011;43562;43.064;0.160;2023-04-03T07:09:33;5.65;;;2.00;;
57720;SDS011;43562;43.064;0.160;2023-04-03T07:11:59;1.88;;;1.77;;
57720;SDS011;43562;43.064;0.160;2023-04-03T07:14:25;2.53;;;2.00;;
57720;SDS011;43562;43.064;0.160;2023-04-03T07:16:52;1.83;;;1.73;;
57720;SDS011;43562;43.064;0.160;2023-04-03T07:19:18;2.22;;;2.03;;
57720;SDS011;43562;43.064;0.160;2023-04-03T07:21:44;3.83;;;2.05;;
57720;SDS011;43562;43.064;0.160;2023-04-03T07:24:11;1.73;;;1.63;;
57720;SDS011;43562;43.064;0.160;2023-04-03T07:26:37;5.00;;;1.77;;
57720;SDS011;43562;43.064;0.160;2023-04-03T07:29:03;2.17;;;1.58;;
57720;SDS011;43562;43.064;0.160;2023-04-03T07:31:29;4.57;;;1.90;;
57720;SDS011;43562;43.064;0.160;2023-04-03T07:33:55;5.30;;;4.90;;
57720;SDS011;43562;43.064;0.160;2023-04-03T07:36:22;5.95;;;3.83;;
57720;SDS011;43562;43.064;0.160;2023-04-03T07:38:48;3.65;;;3.45;;
57720;SDS011;43562;43.064;0.160;2023-04-03T07:41:15;3.70;;;3.40;;
57720;SDS011;43562;43.064;0.160;2023-04-03T07:43:42;4.05;;;3.75;;
57720;SDS011;43562;43.064;0.160;2023-04-03T07:46:08;4.05;;;3.10;;
57720;SDS011;43562;43.064;0.160;2023-04-03T07:48:35;3.88;;;2.83;;
57720;SDS011;43562;43.064;0.160;2023-04-03T07:51:02;2.90;;;2.70;;
57720;SDS011;43562;43.064;0.160;2023-04-03T07:53:28;3.05;;;2.60;;
57720;SDS011;43562;43.064;0.160;2023-04-03T07:55:56;4.15;;;2.88;;
57720;SDS011;43562;43.064;0.160;2023-04-03T07:58:22;6.78;;;3.08;;
57720;SDS011;43562;43.064;0.160;2023-04-03T08:00:49;3.95;;;3.33;;
57720;SDS011;43562;43.064;0.160;2023-04-03T08:03:15;3.03;;;2.83;;
57720;SDS011;43562;43.064;0.160;2023-04-03T08:05:43;3.10;;;2.85;;
57720;SDS011;43562;43.064;0.160;2023-04-03T08:08:11;3.05;;;2.75;;
57720;SDS011;43562;43.064;0.160;2023-04-03T08:10:37;3.05;;;2.72;;
57720;SDS011;43562;43.064;0.160;2023-04-03T08:13:04;2.67;;;2.47;;
57720;SDS011;43562;43.064;0.160;2023-04-03T08:15:30;2.88;;;2.67;;
57720;SDS011;43562;43.064;0.160;2023-04-03T08:17:56;2.60;;;2.40;;
57720;SDS011;43562;43.064;0.160;2023-04-03T08:20:22;2.85;;;2.45;;
57720;SDS011;43562;43.064;0.160;2023-04-03T08:22:48;3.33;;;2.03;;
57720;SDS011;43562;43.064;0.160;2023-04-03T08:25:14;2.42;;;2.20;;
57720;SDS011;43562;43.064;0.160;2023-04-03T08:27:42;2.20;;;2.10;;
57720;SDS011;43562;43.064;0.160;2023-04-03T08:30:08;2.60;;;2.40;;
57720;SDS011;43562;43.064;0.160;2023-04-03T08:32:34;2.50;;;2.30;;
57720;SDS011;43562;43.064;0.160;2023-04-03T08:35:01;2.65;;;2.45;;
57720;SDS011;43562;43.064;0.160;2023-04-03T08:37:27;3.22;;;2.40;;
57720;SDS011;43562;43.064;0.160;2023-04-03T08:39:53;3.75;;;2.50;;
57720;SDS011;43562;43.064;0.160;2023-04-03T08:44:54;2.03;;;1.92;;
57720;SDS011;43562;43.064;0.160;2023-04-03T08:54:52;1.90;;;1.80;;
57720;SDS011;43562;43.064;0.160;2023-04-03T08:57:21;1.70;;;1.60;;
57720;SDS011;43562;43.064;0.160;2023-04-03T08:59:52;1.88;;;1.60;;
57720;SDS011;43562;43.064;0.160;2023-04-03T09:02:29;1.70;;;1.60;;
57720;SDS011;43562;43.064;0.160;2023-04-03T09:04:57;1.42;;;1.33;;
57720;SDS011;43562;43.064;0.160;2023-04-03T09:07:45;1.60;;;1.50;;
57720;SDS011;43562;43.064;0.160;2023-04-03T09:10:10;1.52;;;1.42;;
57720;SDS011;43562;43.064;0.160;2023-04-03T09:12:38;1.65;;;1.55;;
57720;SDS011;43562;43.064;0.160;2023-04-03T09:15:09;1.73;;;1.63;;
57720;SDS011;43562;43.064;0.160;2023-04-03T09:23:01;1.40;;;1.30;;
57720;SDS011;43562;43.064;0.160;2023-04-03T09:25:33;1.75;;;1.65;;
57720;SDS011;43562;43.064;0.160;2023-04-03T09:28:02;3.40;;;3.20;;
57720;SDS011;43562;43.064;0.160;2023-04-03T09:30:29;2.35;;;2.25;;
57720;SDS011;43562;43.064;0.160;2023-04-03T09:32:56;2.95;;;2.85;;
57720;SDS011;43562;43.064;0.160;2023-04-03T09:37:52;3.00;;;2.80;;
57720;SDS011;43562;43.064;0.160;2023-04-03T09:42:51;2.53;;;2.35;;
57720;SDS011;43562;43.064;0.160;2023-04-03T09:45:25;2.05;;;1.95;;
57720;SDS011;43562;43.064;0.160;2023-04-03T09:48:37;1.63;;;1.63;;
57720;SDS011;43562;43.064;0.160;2023-04-03T09:51:00;1.98;;;1.88;;
57720;SDS011;43562;43.064;0.160;2023-04-03T09:53:35;2.15;;;2.05;;
57720;SDS011;43562;43.064;0.160;2023-04-03T10:01:34;1.92;;;1.83;;
57720;SDS011;43562;43.064;0.160;2023-04-03T10:06:31;2.03;;;1.92;;
57720;SDS011;43562;43.064;0.160;2023-04-03T10:09:05;2.45;;;1.98;;
57720;SDS011;43562;43.064;0.160;2023-04-03T10:11:31;1.27;;;1.27;;
57720;SDS011;43562;43.064;0.160;2023-04-03T10:14:02;3.10;;;1.98;;
57720;SDS011;43562;43.064;0.160;2023-04-03T10:16:37;1.98;;;1.85;;
57720;SDS011;43562;43.064;0.160;2023-04-03T10:21:35;1.40;;;1.38;;
57720;SDS011;43562;43.064;0.160;2023-04-03T10:24:06;1.70;;;1.60;;
57720;SDS011;43562;43.064;0.160;2023-04-03T10:34:29;1.00;;;1.00;;
57720;SDS011;43562;43.064;0.160;2023-04-03T10:37:03;2.55;;;1.30;;
57720;SDS011;43562;43.064;0.160;2023-04-03T10:39:34;1.35;;;1.35;;
57720;SDS011;43562;43.064;0.160;2023-04-03T10:49:46;1.20;;;1.20;;
57720;SDS011;43562;43.064;0.160;2023-04-03T10:57:24;1.20;;;1.20;;
57720;SDS011;43562;43.064;0.160;2023-04-03T10:59:56;1.50;;;1.40;;
57720;SDS011;43562;43.064;0.160;2023-04-03T11:02:30;1.40;;;1.40;;
57720;SDS011;43562;43.064;0.160;2023-04-03T11:05:07;1.63;;;1.20;;
57720;SDS011;43562;43.064;0.160;2023-04-03T11:07:42;1.27;;;1.20;;
57720;SDS011;43562;43.064;0.160;2023-04-03T11:10:21;1.90;;;1.20;;
57720;SDS011;43562;43.064;0.160;2023-04-03T11:12:55;1.40;;;1.27;;
57720;SDS011;43562;43.064;0.160;2023-04-03T11:15:22;1.40;;;1.30;;
57720;SDS011;43562;43.064;0.160;2023-04-03T11:17:58;1.50;;;1.40;;
57720;SDS011;43562;43.064;0.160;2023-04-03T11:23:00;1.63;;;1.52;;
57720;SDS011;43562;43.064;0.160;2023-04-03T11:25:29;1.60;;;1.50;;
57720;SDS011;43562;43.064;0.160;2023-04-03T11:28:03;2.30;;;1.40;;
57720;SDS011;43562;43.064;0.160;2023-04-03T11:35:48;1.55;;;1.45;;
57720;SDS011;43562;43.064;0.160;2023-04-03T11:38:25;1.60;;;1.50;;
57720;SDS011;43562;43.064;0.160;2023-04-03T11:40:54;1.48;;;1.10;;
57720;SDS011;43562;43.064;0.160;2023-04-03T11:43:30;2.25;;;1.20;;
57720;SDS011;43562;43.064;0.160;2023-04-03T11:46:06;1.75;;;1.58;;
57720;SDS011;43562;43.064;0.160;2023-04-03T11:51:02;1.75;;;1.42;;
57720;SDS011;43562;43.064;0.160;2023-04-03T11:53:48;1.27;;;1.27;;
57720;SDS011;43562;43.064;0.160;2023-04-03T12:01:46;1.50;;;1.40;;
57720;SDS011;43562;43.064;0.160;2023-04-03T12:04:13;1.20;;;1.10;;
57720;SDS011;43562;43.064;0.160;2023-04-03T12:12:21;1.00;;;1.00;;
57720;SDS011;43562;43.064;0.160;2023-04-03T12:14:48;1.00;;;1.00;;
57720;SDS011;43562;43.064;0.160;2023-04-03T12:17:25;1.70;;;1.40;;
57720;SDS011;43562;43.064;0.160;2023-04-03T12:19:52;1.15;;;1.15;;
57720;SDS011;43562;43.064;0.160;2023-04-03T12:22:19;1.02;;;1.02;;
57720;SDS011;43562;43.064;0.160;2023-04-03T12:24:54;1.77;;;1.58;;
57720;SDS011;43562;43.064;0.160;2023-04-03T12:30:35;1.60;;;1.50;;
57720;SDS011;43562;43.064;0.160;2023-04-03T12:48:13;1.35;;;1.25;;
57720;SDS011;43562;43.064;0.160;2023-04-03T12:50:39;1.25;;;1.13;;
57720;SDS011;43562;43.064;0.160;2023-04-03T12:53:10;1.00;;;1.00;;
57720;SDS011;43562;43.064;0.160;2023-04-03T12:55:37;1.30;;;1.30;;
57720;SDS011;43562;43.064;0.160;2023-04-03T12:58:13;1.48;;;1.38;;
57720;SDS011;43562;43.064;0.160;2023-04-03T13:00:40;2.72;;;1.42;;
57720;SDS011;43562;43.064;0.160;2023-04-03T13:03:07;1.45;;;1.35;;
57720;SDS011;43562;43.064;0.160;2023-04-03T13:05:45;1.45;;;1.35;;
57720;SDS011;43562;43.064;0.160;2023-04-03T13:08:12;1.45;;;1.40;;
57720;SDS011;43562;43.064;0.160;2023-04-03T13:10:43;1.30;;;1.30;;
57720;SDS011;43562;43.064;0.160;2023-04-03T13:13:13;1.58;;;1.48;;
57720;SDS011;43562;43.064;0.160;2023-04-03T13:15:42;1.30;;;1.30;;
57720;SDS011;43562;43.064;0.160;2023-04-03T13:20:56;1.30;;;1.30;;
57720;SDS011;43562;43.064;0.160;2023-04-03T13:23:23;1.15;;;1.15;;
57720;SDS011;43562;43.064;0.160;2023-04-03T13:25:50;1.60;;;1.50;;
57720;SDS011;43562;43.064;0.160;2023-04-03T13:28:20;2.30;;;1.17;;
57720;SDS011;43562;43.064;0.160;2023-04-03T13:30:54;1.60;;;1.50;;
57720;SDS011;43562;43.064;0.160;2023-04-03T13:33:22;1.13;;;1.13;;
57720;SDS011;43562;43.064;0.160;2023-04-03T13:35:54;1.40;;;1.30;;
57720;SDS011;43562;43.064;0.160;2023-04-03T13:38:28;1.80;;;1.70;;
57720;SDS011;43562;43.064;0.160;2023-04-03T13:40:59;1.20;;;1.20;;
57720;SDS011;43562;43.064;0.160;2023-04-03T13:43:28;1.13;;;1.13;;
57720;SDS011;43562;43.064;0.160;2023-04-03T13:46:00;1.30;;;1.30;;
57720;SDS011;43562;43.064;0.160;2023-04-03T13:48:34;1.60;;;1.50;;
57720;SDS011;43562;43.064;0.160;2023-04-03T13:51:01;1.50;;;1.50;;
57720;SDS011;43562;43.064;0.160;2023-04-03T13:53:29;1.98;;;1.38;;
57720;SDS011;43562;43.064;0.160;2023-04-03T13:56:00;1.42;;;1.33;;
57720;SDS011;43562;43.064;0.160;2023-04-03T13:58:30;1.70;;;1.60;;
57720;SDS011;43562;43.064;0.160;2023-04-03T14:03:59;1.50;;;1.40;;
57720;SDS011;43562;43.064;0.160;2023-04-03T14:06:26;1.85;;;1.40;;
57720;SDS011;43562;43.064;0.160;2023-04-03T14:08:52;1.60;;;1.50;;
57720;SDS011;43562;43.064;0.160;2023-04-03T14:11:22;1.60;;;1.50;;
57720;SDS011;43562;43.064;0.160;2023-04-03T14:13:50;1.60;;;1.50;;
57720;SDS011;43562;43.064;0.160;2023-04-03T14:16:21;1.33;;;1.33;;
57720;SDS011;43562;43.064;0.160;2023-04-03T14:18:48;1.50;;;1.42;;
57720;SDS011;43562;43.064;0.160;2023-04-03T14:21:15;1.55;;;1.45;;
57720;SDS011;43562;43.064;0.160;2023-04-03T14:23:43;1.13;;;1.13;;
57720;SDS011;43562;43.064;0.160;2023-04-03T14:26:22;1.35;;;1.30;;
57720;SDS011;43562;43.064;0.160;2023-04-03T14:28:53;1.73;;;1.42;;
57720;SDS011;43562;43.064;0.160;2023-04-03T14:31:20;1.40;;;1.30;;
57720;SDS011;43562;43.064;0.160;2023-04-03T14:33:47;1.70;;;1.60;;
57720;SDS011;43562;43.064;0.160;2023-04-03T14:36:14;1.20;;;1.20;;
57720;SDS011;43562;43.064;0.160;2023-04-03T14:38:40;1.40;;;1.40;;
57720;SDS011;43562;43.064;0.160;2023-04-03T14:41:07;1.70;;;1.60;;
57720;SDS011;43562;43.064;0.160;2023-04-03T14:43:33;1.60;;;1.50;;
57720;SDS011;43562;43.064;0.160;2023-04-03T14:45:59;1.45;;;1.40;;
57720;SDS011;43562;43.064;0.160;2023-04-03T14:48:26;1.73;;;1.63;;
57720;SDS011;43562;43.064;0.160;2023-04-03T14:50:53;2.00;;;1.90;;
57720;SDS011;43562;43.064;0.160;2023-04-03T14:53:20;1.70;;;1.60;;
57720;SDS011;43562;43.064;0.160;2023-04-03T14:55:51;1.75;;;1.65;;
57720;SDS011;43562;43.064;0.160;2023-04-03T14:58:18;1.65;;;1.55;;
57720;SDS011;43562;43.064;0.160;2023-04-03T15:00:45;1.50;;;1.40;;
57720;SDS011;43562;43.064;0.160;2023-04-03T15:03:18;1.60;;;1.50;;
57720;SDS011;43562;43.064;0.160;2023-04-03T15:05:45;1.93;;;1.83;;
57720;SDS011;43562;43.064;0.160;2023-04-03T15:08:22;1.55;;;1.45;;
57720;SDS011;43562;43.064;0.160;2023-04-03T15:10:49;1.80;;;1.70;;
57720;SDS011;43562;43.064;0.160;2023-04-03T15:13:17;1.77;;;1.67;;
57720;SDS011;43562;43.064;0.160;2023-04-03T15:15:44;1.60;;;1.50;;
57720;SDS011;43562;43.064;0.160;2023-04-03T15:18:11;1.77;;;1.67;;
57720;SDS011;43562;43.064;0.160;2023-04-03T15:20:39;1.75;;;1.65;;
57720;SDS011;43562;43.064;0.160;2023-04-03T15:23:06;1.90;;;1.70;;
57720;SDS011;43562;43.064;0.160;2023-04-03T15:25:32;1.52;;;1.48;;
57720;SDS011;43562;43.064;0.160;2023-04-03T15:27:58;1.60;;;1.50;;
57720;SDS011;43562;43.064;0.160;2023-04-03T15:30:25;1.67;;;1.58;;
57720;SDS011;43562;43.064;0.160;2023-04-03T15:32:51;2.00;;;1.90;;
57720;SDS011;43562;43.064;0.160;2023-04-03T15:35:18;4.07;;;2.03;;
57720;SDS011;43562;43.064;0.160;2023-04-03T15:37:44;2.28;;;2.08;;
57720;SDS011;43562;43.064;0.160;2023-04-03T15:40:10;2.17;;;2.08;;
57720;SDS011;43562;43.064;0.160;2023-04-03T15:42:37;1.80;;;1.70;;
57720;SDS011;43562;43.064;0.160;2023-04-03T15:45:03;1.67;;;1.58;;
57720;SDS011;43562;43.064;0.160;2023-04-03T15:47:29;2.20;;;2.10;;
57720;SDS011;43562;43.064;0.160;2023-04-03T15:49:56;2.15;;;2.05;;
57720;SDS011;43562;43.064;0.160;2023-04-03T15:52:22;2.25;;;2.08;;
57720;SDS011;43562;43.064;0.160;2023-04-03T15:54:48;2.42;;;2.20;;
57720;SDS011;43562;43.064;0.160;2023-04-03T15:57:14;2.05;;;1.95;;
57720;SDS011;43562;43.064;0.160;2023-04-03T15:59:40;2.10;;;2.00;;
57720;SDS011;43562;43.064;0.160;2023-04-03T16:02:07;2.75;;;2.22;;
57720;SDS011;43562;43.064;0.160;2023-04-03T16:04:35;4.18;;;2.65;;
57720;SDS011;43562;43.064;0.160;2023-04-03T16:07:01;2.45;;;1.95;;
57720;SDS011;43562;43.064;0.160;2023-04-03T16:09:28;2.65;;;2.45;;
57720;SDS011;43562;43.064;0.160;2023-04-03T16:11:54;2.47;;;2.25;;
57720;SDS011;43562;43.064;0.160;2023-04-03T16:14:21;3.40;;;2.05;;
57720;SDS011;43562;43.064;0.160;2023-04-03T16:16:47;2.50;;;2.30;;
57720;SDS011;43562;43.064;0.160;2023-04-03T16:19:13;2.08;;;1.98;;
57720;SDS011;43562;43.064;0.160;2023-04-03T16:21:39;2.60;;;1.80;;
57720;SDS011;43562;43.064;0.160;2023-04-03T16:24:05;2.13;;;1.98;;
57720;SDS011;43562;43.064;0.160;2023-04-03T16:26:31;2.63;;;2.42;;
57720;SDS011;43562;43.064;0.160;2023-04-03T16:28:58;1.95;;;1.85;;
57720;SDS011;43562;43.064;0.160;2023-04-03T16:31:24;2.13;;;2.03;;
57720;SDS011;43562;43.064;0.160;2023-04-03T16:33:51;2.33;;;2.22;;
57720;SDS011;43562;43.064;0.160;2023-04-03T16:36:17;2.28;;;1.80;;